createdAt,value
2019-02-21T00:00:24.870Z,40.05
2019-02-21T00:00:56.993Z,40.14
2019-02-21T00:01:28.994Z,40.05
2019-02-21T00:02:00.993Z,40.14
2019-02-21T00:02:32.963Z,40.14
2019-02-21T00:03:04.929Z,40.14
2019-02-21T00:03:36.994Z,40.14
2019-02-21T00:04:08.999Z,40.14
2019-02-21T00:04:41.010Z,40.14
2019-02-21T00:05:13.213Z,40.14
2019-02-21T00:05:45.456Z,40.14
2019-02-21T00:06:17.517Z,40.14
2019-02-21T00:06:49.744Z,40.24
2019-02-21T00:07:21.863Z,40.14
2019-02-21T00:07:53.934Z,40.14
2019-02-21T00:08:26.010Z,40.05
2019-02-21T00:08:58.047Z,40.14
2019-02-21T00:09:30.117Z,40.34
2019-02-21T00:10:02.235Z,40.14
2019-02-21T00:10:34.252Z,40.05
2019-02-21T00:11:06.244Z,40.05
2019-02-21T00:11:38.340Z,40.24
2019-02-21T00:12:10.426Z,40.14
2019-02-21T00:12:42.421Z,40.05
2019-02-21T00:13:14.439Z,40.05
2019-02-21T00:13:46.455Z,40.14
2019-02-21T00:14:18.509Z,40.14
2019-02-21T00:14:50.538Z,40.05
2019-02-21T00:15:22.564Z,40.05
2019-02-21T00:15:54.607Z,40.05
2019-02-21T00:16:26.637Z,39.95
2019-02-21T00:16:58.676Z,40.14
2019-02-21T00:17:30.719Z,40.05
2019-02-21T00:18:02.720Z,40.14
2019-02-21T00:18:34.786Z,40.14
2019-02-21T00:19:06.778Z,40.05
2019-02-21T00:19:38.825Z,40.05
2019-02-21T00:20:10.810Z,40.05
2019-02-21T00:20:42.841Z,40.05
2019-02-21T00:21:14.827Z,40.05
2019-02-21T00:21:46.879Z,40.05
2019-02-21T00:22:18.887Z,40.05
2019-02-21T00:22:50.884Z,40.05
2019-02-21T00:23:22.873Z,40.14
2019-02-21T00:23:54.887Z,40.05
2019-02-21T00:24:26.933Z,40.05
2019-02-21T00:24:58.983Z,40.05
2019-02-21T00:25:31.203Z,40.05
2019-02-21T00:26:03.196Z,40.05
2019-02-21T00:26:35.210Z,40.05
2019-02-21T00:27:07.196Z,40.24
2019-02-21T00:27:39.231Z,40.05
2019-02-21T00:28:11.247Z,40.24
2019-02-21T00:28:43.275Z,40.05
2019-02-21T00:29:15.287Z,40.24
2019-02-21T00:29:47.327Z,40.05
2019-02-21T00:30:19.345Z,40.05
2019-02-21T00:30:51.360Z,40.05
2019-02-21T00:31:23.372Z,40.24
2019-02-21T00:31:55.401Z,40.05
2019-02-21T00:32:27.430Z,39.95
2019-02-21T00:32:59.582Z,40.05
2019-02-21T00:33:31.579Z,40.05
2019-02-21T00:34:03.597Z,40.05
2019-02-21T00:34:35.591Z,40.05
2019-02-21T00:35:07.621Z,39.95
2019-02-21T00:35:39.649Z,39.95
2019-02-21T00:36:11.709Z,40.14
2019-02-21T00:36:43.801Z,40.05
2019-02-21T00:37:16.809Z,40.05
2019-02-21T00:37:48.827Z,39.95
2019-02-21T00:38:20.800Z,40.05
2019-02-21T00:38:52.758Z,40.05
2019-02-21T00:39:24.733Z,40.14
2019-02-21T00:39:56.757Z,40.14
2019-02-21T00:40:28.767Z,40.24
2019-02-21T00:41:01.504Z,39.86
2019-02-21T00:41:33.562Z,39.95
2019-02-21T00:42:05.536Z,40.24
2019-02-21T00:42:37.556Z,40.14
2019-02-21T00:43:09.531Z,40.05
2019-02-21T00:43:41.593Z,40.05
2019-02-21T00:44:13.613Z,39.95
2019-02-21T00:44:45.619Z,40.14
2019-02-21T00:45:17.627Z,39.95
2019-02-21T00:45:49.629Z,40.24
2019-02-21T00:46:21.788Z,40.05
2019-02-21T00:46:53.866Z,39.86
2019-02-21T00:47:25.863Z,39.95
2019-02-21T00:47:57.924Z,40.05
2019-02-21T00:48:29.911Z,39.95
2019-02-21T00:49:01.936Z,39.95
2019-02-21T00:49:33.942Z,40.05
2019-02-21T00:50:05.921Z,39.95
2019-02-21T00:50:37.894Z,40.05
2019-02-21T00:51:09.856Z,39.95
2019-02-21T00:51:41.859Z,39.95
2019-02-21T00:52:13.835Z,40.05
2019-02-21T00:52:45.823Z,40.05
2019-02-21T00:53:17.792Z,39.95
2019-02-21T00:53:49.809Z,39.95
2019-02-21T00:54:21.787Z,39.95
2019-02-21T00:54:53.778Z,40.14
2019-02-21T00:55:28.397Z,40.05
2019-02-21T00:56:00.397Z,40.14
2019-02-21T00:56:32.367Z,40.24
2019-02-21T00:57:04.378Z,40.24
2019-02-21T00:57:36.383Z,40.14
2019-02-21T00:58:08.385Z,39.95
2019-02-21T00:58:40.369Z,40.24
2019-02-21T00:59:12.341Z,39.95
2019-02-21T00:59:44.329Z,39.95
2019-02-21T01:00:16.309Z,39.95
2019-02-21T01:00:48.377Z,39.86
2019-02-21T01:01:21.495Z,40.05
2019-02-21T01:01:53.484Z,40.05
2019-02-21T01:02:25.626Z,39.95
2019-02-21T01:02:57.611Z,39.95
2019-02-21T01:03:29.592Z,40.05
2019-02-21T01:04:01.570Z,40.05
2019-02-21T01:04:33.539Z,40.14
2019-02-21T01:05:05.504Z,39.95
2019-02-21T01:05:37.491Z,39.95
2019-02-21T01:06:09.472Z,40.24
2019-02-21T01:06:41.458Z,39.95
2019-02-21T01:07:13.441Z,39.86
2019-02-21T01:07:45.411Z,40.24
2019-02-21T01:08:17.402Z,39.86
2019-02-21T01:08:49.381Z,39.95
2019-02-21T01:09:21.456Z,40.05
2019-02-21T01:09:53.459Z,40.14
2019-02-21T01:10:25.446Z,40.14
2019-02-21T01:10:57.435Z,39.86
2019-02-21T01:11:29.425Z,40.14
2019-02-21T01:12:01.413Z,40.05
2019-02-21T01:12:33.397Z,40.05
2019-02-21T01:13:05.395Z,40.05
2019-02-21T01:13:37.365Z,40.05
2019-02-21T01:14:09.441Z,39.95
2019-02-21T01:14:41.450Z,40.05
2019-02-21T01:15:13.455Z,39.95
2019-02-21T01:15:45.470Z,39.95
2019-02-21T01:16:17.550Z,40.14
2019-02-21T01:16:49.553Z,40.05
2019-02-21T01:17:21.529Z,40.14
2019-02-21T01:17:53.521Z,40.24
2019-02-21T01:18:25.499Z,40.14
2019-02-21T01:18:57.471Z,40.05
2019-02-21T01:19:29.501Z,40.05
2019-02-21T01:20:01.474Z,40.24
2019-02-21T01:20:33.487Z,40.05
2019-02-21T01:21:05.456Z,40.05
2019-02-21T01:21:37.459Z,39.95
2019-02-21T01:22:09.448Z,40.05
2019-02-21T01:22:41.459Z,40.05
2019-02-21T01:23:13.438Z,40.24
2019-02-21T01:23:45.487Z,40.05
2019-02-21T01:24:17.482Z,40.05
2019-02-21T01:24:49.493Z,40.05
2019-02-21T01:25:21.490Z,40.05
2019-02-21T01:25:53.478Z,39.95
2019-02-21T01:26:25.463Z,40.05
2019-02-21T01:26:57.467Z,40.05
2019-02-21T01:27:29.502Z,40.05
2019-02-21T01:28:01.543Z,40.14
2019-02-21T01:28:33.564Z,39.95
2019-02-21T01:29:05.562Z,40.14
2019-02-21T01:29:37.562Z,39.86
2019-02-21T01:30:09.538Z,40.14
2019-02-21T01:30:41.672Z,40.05
2019-02-21T01:31:13.683Z,40.24
2019-02-21T01:31:45.664Z,40.05
2019-02-21T01:32:17.642Z,40.05
2019-02-21T01:32:49.634Z,39.95
2019-02-21T01:33:21.622Z,40.24
2019-02-21T01:33:53.610Z,39.95
2019-02-21T01:34:25.579Z,40.05
2019-02-21T01:34:57.563Z,40.05
2019-02-21T01:35:29.559Z,40.05
2019-02-21T01:36:01.543Z,40.14
2019-02-21T01:36:33.535Z,39.95
2019-02-21T01:37:05.536Z,39.95
2019-02-21T01:37:37.499Z,40.14
2019-02-21T01:38:09.465Z,39.95
2019-02-21T01:38:41.439Z,39.95
2019-02-21T01:39:13.617Z,40.24
2019-02-21T01:39:45.574Z,40.05
2019-02-21T01:40:17.641Z,40.05
2019-02-21T01:40:49.613Z,39.86
2019-02-21T01:41:21.596Z,39.95
2019-02-21T01:41:53.637Z,40.05
2019-02-21T01:42:25.594Z,39.95
2019-02-21T01:42:57.579Z,39.86
2019-02-21T01:43:29.557Z,40.14
2019-02-21T01:44:01.609Z,40.05
2019-02-21T01:44:36.247Z,40.05
2019-02-21T01:45:08.226Z,40.05
2019-02-21T01:45:40.223Z,40.34
2019-02-21T01:46:12.213Z,40.05
2019-02-21T01:46:44.246Z,40.05
2019-02-21T01:47:16.222Z,39.95
2019-02-21T01:47:48.212Z,40.05
2019-02-21T01:48:20.167Z,40.05
2019-02-21T01:48:52.147Z,40.05
2019-02-21T01:49:24.151Z,39.86
2019-02-21T01:49:56.134Z,40.05
2019-02-21T01:50:28.120Z,39.95
2019-02-21T01:51:02.823Z,40.05
2019-02-21T01:51:34.813Z,40.05
2019-02-21T01:52:06.771Z,40.05
2019-02-21T01:52:38.748Z,40.05
2019-02-21T01:53:10.805Z,40.05
2019-02-21T01:53:42.881Z,40.05
2019-02-21T01:54:14.847Z,39.95
2019-02-21T01:54:46.846Z,40.05
2019-02-21T01:55:18.921Z,39.86
2019-02-21T01:55:50.964Z,39.86
2019-02-21T01:56:22.978Z,40.14
2019-02-21T01:56:54.954Z,40.14
2019-02-21T01:57:26.940Z,39.95
2019-02-21T01:57:58.923Z,40.05
2019-02-21T01:58:30.915Z,40.05
2019-02-21T01:59:02.945Z,40.05
2019-02-21T01:59:35.438Z,40.14
2019-02-21T02:00:07.419Z,39.95
2019-02-21T02:00:39.663Z,40.05
2019-02-21T02:01:11.679Z,40.14
2019-02-21T02:01:43.668Z,39.95
2019-02-21T02:02:15.666Z,40.05
2019-02-21T02:02:47.647Z,39.95
2019-02-21T02:03:19.639Z,40.05
2019-02-21T02:03:51.628Z,40.05
2019-02-21T02:04:23.658Z,40.05
2019-02-21T02:04:55.650Z,40.14
2019-02-21T02:05:27.628Z,40.05
2019-02-21T02:05:59.622Z,40.05
2019-02-21T02:06:31.601Z,40.14
2019-02-21T02:07:03.577Z,39.86
2019-02-21T02:07:35.567Z,39.95
2019-02-21T02:08:07.551Z,40.05
2019-02-21T02:08:39.527Z,39.86
2019-02-21T02:09:11.524Z,40.14
2019-02-21T02:09:43.622Z,40.24
2019-02-21T02:10:15.609Z,39.95
2019-02-21T02:10:47.580Z,39.95
2019-02-21T02:11:19.649Z,40.24
2019-02-21T02:11:51.710Z,39.95
2019-02-21T02:12:23.687Z,39.95
2019-02-21T02:12:55.831Z,39.95
2019-02-21T02:13:27.831Z,40.14
2019-02-21T02:13:59.813Z,40.05
2019-02-21T02:14:31.795Z,40.14
2019-02-21T02:15:03.776Z,39.95
2019-02-21T02:15:35.782Z,39.95
2019-02-21T02:16:07.760Z,40.05
2019-02-21T02:16:39.862Z,40.05
2019-02-21T02:17:12.057Z,40.05
2019-02-21T02:17:44.066Z,40.05
2019-02-21T02:18:16.128Z,40.05
2019-02-21T02:18:48.098Z,39.95
2019-02-21T02:19:20.073Z,40.05
2019-02-21T02:19:52.042Z,39.95
2019-02-21T02:20:24.017Z,40.05
2019-02-21T02:20:56.121Z,39.95
2019-02-21T02:21:28.305Z,40.05
2019-02-21T02:22:00.304Z,39.95
2019-02-21T02:22:32.284Z,40.05
2019-02-21T02:23:04.295Z,40.05
2019-02-21T02:23:36.383Z,40.05
2019-02-21T02:24:08.613Z,40.14
2019-02-21T02:24:40.752Z,39.95
2019-02-21T02:25:12.736Z,40.05
2019-02-21T02:25:44.717Z,39.95
2019-02-21T02:26:16.699Z,40.05
2019-02-21T02:26:48.671Z,40.34
2019-02-21T02:27:20.643Z,40.05
2019-02-21T02:27:52.646Z,40.14
2019-02-21T02:28:24.660Z,40.14
2019-02-21T02:28:56.647Z,40.14
2019-02-21T02:29:28.625Z,40.14
2019-02-21T02:30:00.827Z,40.05
2019-02-21T02:30:32.879Z,40.14
2019-02-21T02:31:04.877Z,40.05
2019-02-21T02:31:36.900Z,40.14
2019-02-21T02:32:10.395Z,40.14
2019-02-21T02:32:42.463Z,40.14
2019-02-21T02:33:14.493Z,40.14
2019-02-21T02:33:46.473Z,40.14
2019-02-21T02:34:18.476Z,40.14
2019-02-21T02:34:50.474Z,40.14
2019-02-21T02:35:22.486Z,40.14
2019-02-21T02:35:54.474Z,40.24
2019-02-21T02:36:26.500Z,40.14
2019-02-21T02:36:58.524Z,40.24
2019-02-21T02:37:30.515Z,39.95
2019-02-21T02:38:02.551Z,39.95
2019-02-21T02:38:34.543Z,39.95
2019-02-21T02:39:06.537Z,40.24
2019-02-21T02:39:38.513Z,40.24
2019-02-21T02:40:10.496Z,40.24
2019-02-21T02:40:42.528Z,40.14
2019-02-21T02:41:14.518Z,40.24
2019-02-21T02:41:46.529Z,39.86
2019-02-21T02:42:18.542Z,39.76
2019-02-21T02:42:51.360Z,39.95
2019-02-21T02:43:23.385Z,39.86
2019-02-21T02:43:55.385Z,40.24
2019-02-21T02:44:27.442Z,40.24
2019-02-21T02:44:59.414Z,40.34
2019-02-21T02:45:31.697Z,39.76
2019-02-21T02:46:03.756Z,40.34
2019-02-21T02:46:35.930Z,39.95
2019-02-21T02:47:07.928Z,40.05
2019-02-21T02:47:39.902Z,39.86
2019-02-21T02:48:11.911Z,39.86
2019-02-21T02:48:43.908Z,40.24
2019-02-21T02:49:15.975Z,39.76
2019-02-21T02:49:47.985Z,40.24
2019-02-21T02:50:20.030Z,39.95
2019-02-21T02:50:52.026Z,39.76
2019-02-21T02:51:24.009Z,39.86
2019-02-21T02:51:56.040Z,39.86
2019-02-21T02:52:28.110Z,39.76
2019-02-21T02:53:00.092Z,39.86
2019-02-21T02:53:32.158Z,39.76
2019-02-21T02:54:04.131Z,39.66
2019-02-21T02:54:36.369Z,40.34
2019-02-21T02:55:08.361Z,40.34
2019-02-21T02:55:40.342Z,40.34
2019-02-21T02:56:12.344Z,40.34
2019-02-21T02:56:44.353Z,40.24
2019-02-21T02:57:16.334Z,40.34
2019-02-21T02:57:48.340Z,40.31
2019-02-21T02:58:20.317Z,40.63
2019-02-21T02:58:52.381Z,39.95
2019-02-21T02:59:24.394Z,40.24
2019-02-21T02:59:56.498Z,40.05
2019-02-21T03:00:28.579Z,40.34
2019-02-21T03:01:00.592Z,40.14
2019-02-21T03:01:36.366Z,40.63
2019-02-21T03:02:08.354Z,40.05
2019-02-21T03:02:40.316Z,40.24
2019-02-21T03:03:12.303Z,40.14
2019-02-21T03:03:44.278Z,40.24
2019-02-21T03:04:16.481Z,40.34
2019-02-21T03:04:48.776Z,40.14
2019-02-21T03:05:20.945Z,40.14
2019-02-21T03:05:52.964Z,40.14
2019-02-21T03:06:25.044Z,40.43
2019-02-21T03:06:57.042Z,40.14
2019-02-21T03:07:29.021Z,40.14
2019-02-21T03:08:01.002Z,40.14
2019-02-21T03:08:32.994Z,40.14
2019-02-21T03:09:04.988Z,40.14
2019-02-21T03:09:36.956Z,40.34
2019-02-21T03:10:08.959Z,40.14
2019-02-21T03:10:40.932Z,40.43
2019-02-21T03:11:12.928Z,40.14
2019-02-21T03:11:44.923Z,40.05
2019-02-21T03:12:16.941Z,40.14
2019-02-21T03:12:48.954Z,40.05
2019-02-21T03:13:20.922Z,40.14
2019-02-21T03:13:52.911Z,40.14
2019-02-21T03:14:24.897Z,40.14
2019-02-21T03:14:56.898Z,40.24
2019-02-21T03:15:29.119Z,40.34
2019-02-21T03:16:01.245Z,40.14
2019-02-21T03:16:33.313Z,40.43
2019-02-21T03:17:05.299Z,40.12
2019-02-21T03:17:37.317Z,40.14
2019-02-21T03:18:09.349Z,40.12
2019-02-21T03:18:41.327Z,40.24
2019-02-21T03:19:13.356Z,40.14
2019-02-21T03:19:45.357Z,40.14
2019-02-21T03:20:17.346Z,40.43
2019-02-21T03:20:49.349Z,40.14
2019-02-21T03:21:21.354Z,40.24
2019-02-21T03:21:53.350Z,40.14
2019-02-21T03:22:25.320Z,40.14
2019-02-21T03:22:57.307Z,40.24
2019-02-21T03:23:29.306Z,40.14
2019-02-21T03:24:01.302Z,40.24
2019-02-21T03:24:33.312Z,40.22
2019-02-21T03:25:05.418Z,40.22
2019-02-21T03:25:37.476Z,40.34
2019-02-21T03:26:09.520Z,40.22
2019-02-21T03:26:41.547Z,40.12
2019-02-21T03:27:13.612Z,40.24
2019-02-21T03:27:45.645Z,40.34
2019-02-21T03:28:17.625Z,40.22
2019-02-21T03:28:49.626Z,40.22
2019-02-21T03:29:21.611Z,40.24
2019-02-21T03:29:53.586Z,40.24
2019-02-21T03:30:25.580Z,40.14
2019-02-21T03:30:57.586Z,40.14
2019-02-21T03:31:29.636Z,40.53
2019-02-21T03:32:01.688Z,40.14
2019-02-21T03:32:33.785Z,40.43
2019-02-21T03:33:06.301Z,40.14
2019-02-21T03:33:38.667Z,40.41
2019-02-21T03:34:10.781Z,40.41
2019-02-21T03:34:42.857Z,40.43
2019-02-21T03:35:14.884Z,40.53
2019-02-21T03:35:46.898Z,40.34
2019-02-21T03:36:18.965Z,40.43
2019-02-21T03:36:51.139Z,40.43
2019-02-21T03:37:23.205Z,40.43
2019-02-21T03:37:56.428Z,40.24
2019-02-21T03:38:28.448Z,40.43
2019-02-21T03:39:05.666Z,40.43
2019-02-21T03:39:37.915Z,40.53
2019-02-21T03:40:09.991Z,40.51
2019-02-21T03:40:42.124Z,40.51
2019-02-21T03:41:14.287Z,40.34
2019-02-21T03:41:46.297Z,40.31
2019-02-21T03:42:18.335Z,40.22
2019-02-21T03:42:50.493Z,40.63
2019-02-21T03:43:22.505Z,40.43
2019-02-21T03:43:54.548Z,40.31
2019-02-21T03:44:26.558Z,40.43
2019-02-21T03:44:58.597Z,40.41
2019-02-21T03:45:30.579Z,40.41
2019-02-21T03:46:02.585Z,40.34
2019-02-21T03:46:34.573Z,40.43
2019-02-21T03:47:06.569Z,40.63
2019-02-21T03:47:38.591Z,40.53
2019-02-21T03:48:10.550Z,40.61
2019-02-21T03:48:42.653Z,40.61
2019-02-21T03:49:14.793Z,40.63
2019-02-21T03:49:46.769Z,40.63
2019-02-21T03:50:18.751Z,40.41
2019-02-21T03:50:50.728Z,40.7
2019-02-21T03:51:22.775Z,40.61
2019-02-21T03:51:54.795Z,40.7
2019-02-21T03:52:26.811Z,40.72
2019-02-21T03:52:58.818Z,40.61
2019-02-21T03:53:30.797Z,40.72
2019-02-21T03:54:02.787Z,40.7
2019-02-21T03:54:34.779Z,40.63
2019-02-21T03:55:06.977Z,40.41
2019-02-21T03:55:39.257Z,40.8
2019-02-21T03:56:11.512Z,40.41
2019-02-21T03:56:43.511Z,40.51
2019-02-21T03:57:15.503Z,40.51
2019-02-21T03:57:47.504Z,40.41
2019-02-21T03:58:19.492Z,40.8
2019-02-21T03:58:51.482Z,40.8
2019-02-21T03:59:23.468Z,40.7
2019-02-21T03:59:55.518Z,40.7
2019-02-21T04:00:27.535Z,40.61
2019-02-21T04:00:59.522Z,40.8
2019-02-21T04:01:31.662Z,40.51
2019-02-21T04:02:06.179Z,40.7
2019-02-21T04:02:38.207Z,40.89
2019-02-21T04:03:10.198Z,40.7
2019-02-21T04:03:42.244Z,40.61
2019-02-21T04:04:14.265Z,40.8
2019-02-21T04:04:46.292Z,40.89
2019-02-21T04:05:18.269Z,40.8
2019-02-21T04:05:50.269Z,40.7
2019-02-21T04:06:22.257Z,40.8
2019-02-21T04:06:54.264Z,40.7
2019-02-21T04:07:26.254Z,40.7
2019-02-21T04:07:58.241Z,40.7
2019-02-21T04:08:30.372Z,40.99
2019-02-21T04:09:02.377Z,40.7
2019-02-21T04:09:34.365Z,40.89
2019-02-21T04:10:07.339Z,40.7
2019-02-21T04:10:39.651Z,40.51
2019-02-21T04:11:11.646Z,40.7
2019-02-21T04:11:43.641Z,40.7
2019-02-21T04:12:15.628Z,40.7
2019-02-21T04:12:47.919Z,40.61
2019-02-21T04:13:19.905Z,40.51
2019-02-21T04:13:51.890Z,40.89
2019-02-21T04:14:23.899Z,40.8
2019-02-21T04:14:55.879Z,40.61
2019-02-21T04:15:27.896Z,40.61
2019-02-21T04:15:59.904Z,40.7
2019-02-21T04:16:31.909Z,40.7
2019-02-21T04:17:04.125Z,40.99
2019-02-21T04:17:36.117Z,40.7
2019-02-21T04:18:08.134Z,40.8
2019-02-21T04:18:40.132Z,40.7
2019-02-21T04:19:12.104Z,40.8
2019-02-21T04:19:44.084Z,40.8
2019-02-21T04:20:16.092Z,40.41
2019-02-21T04:20:48.085Z,40.7
2019-02-21T04:21:20.142Z,40.51
2019-02-21T04:21:52.159Z,40.8
2019-02-21T04:22:24.166Z,40.51
2019-02-21T04:22:56.161Z,40.41
2019-02-21T04:23:28.134Z,40.61
2019-02-21T04:24:00.224Z,40.61
2019-02-21T04:24:32.294Z,40.41
2019-02-21T04:25:04.287Z,40.41
2019-02-21T04:25:36.266Z,40.61
2019-02-21T04:26:08.297Z,40.51
2019-02-21T04:26:40.316Z,40.8
2019-02-21T04:27:12.325Z,40.51
2019-02-21T04:27:44.301Z,40.99
2019-02-21T04:28:16.285Z,40.51
2019-02-21T04:28:48.275Z,40.7
2019-02-21T04:29:20.281Z,40.51
2019-02-21T04:29:52.268Z,40.61
2019-02-21T04:30:24.284Z,40.8
2019-02-21T04:30:56.325Z,40.89
2019-02-21T04:31:28.484Z,40.7
2019-02-21T04:32:00.484Z,40.8
2019-02-21T04:32:32.451Z,40.61
2019-02-21T04:33:04.469Z,40.61
2019-02-21T04:33:36.463Z,40.61
2019-02-21T04:34:08.458Z,40.8
2019-02-21T04:34:40.531Z,40.61
2019-02-21T04:35:12.625Z,40.8
2019-02-21T04:35:44.656Z,40.89
2019-02-21T04:36:16.652Z,40.7
2019-02-21T04:36:48.631Z,40.61
2019-02-21T04:37:20.629Z,40.8
2019-02-21T04:37:52.609Z,40.51
2019-02-21T04:38:24.578Z,40.8
2019-02-21T04:38:56.698Z,40.89
2019-02-21T04:39:28.661Z,40.8
2019-02-21T04:40:00.748Z,40.89
2019-02-21T04:40:32.783Z,40.7
2019-02-21T04:41:04.778Z,40.8
2019-02-21T04:41:36.759Z,40.8
2019-02-21T04:42:08.790Z,40.7
2019-02-21T04:42:40.778Z,40.8
2019-02-21T04:43:12.775Z,40.8
2019-02-21T04:43:44.768Z,40.7
2019-02-21T04:44:16.866Z,40.8
2019-02-21T04:44:48.870Z,40.61
2019-02-21T04:45:20.923Z,40.8
2019-02-21T04:45:52.919Z,40.8
2019-02-21T04:46:24.930Z,40.51
2019-02-21T04:46:57.022Z,40.7
2019-02-21T04:47:29.876Z,40.61
2019-02-21T04:48:01.935Z,40.8
2019-02-21T04:48:33.996Z,40.7
2019-02-21T04:49:06.149Z,40.7
2019-02-21T04:49:38.215Z,40.8
2019-02-21T04:50:10.239Z,40.61
2019-02-21T04:50:42.221Z,40.7
2019-02-21T04:51:14.223Z,40.7
2019-02-21T04:51:46.244Z,40.89
2019-02-21T04:52:18.252Z,40.8
2019-02-21T04:52:50.226Z,40.7
2019-02-21T04:53:22.217Z,40.8
2019-02-21T04:53:54.289Z,40.7
2019-02-21T04:54:26.308Z,40.7
2019-02-21T04:54:58.324Z,40.7
2019-02-21T04:55:30.308Z,40.89
2019-02-21T04:56:02.356Z,40.8
2019-02-21T04:56:34.410Z,40.7
2019-02-21T04:57:06.403Z,40.8
2019-02-21T04:57:38.374Z,40.8
2019-02-21T04:58:10.483Z,40.8
2019-02-21T04:58:42.472Z,40.8
2019-02-21T04:59:14.469Z,40.51
2019-02-21T04:59:46.460Z,40.89
2019-02-21T05:00:18.518Z,40.61
2019-02-21T05:00:50.726Z,40.8
2019-02-21T05:01:22.860Z,40.8
2019-02-21T05:01:54.972Z,40.8
2019-02-21T05:02:30.044Z,40.7
2019-02-21T05:03:02.035Z,40.7
2019-02-21T05:03:34.038Z,40.89
2019-02-21T05:04:05.994Z,40.61
2019-02-21T05:04:38.005Z,40.61
2019-02-21T05:05:09.992Z,40.7
2019-02-21T05:05:42.124Z,40.61
2019-02-21T05:06:14.099Z,40.7
2019-02-21T05:06:46.104Z,40.7
2019-02-21T05:07:18.221Z,40.7
2019-02-21T05:07:50.212Z,40.89
2019-02-21T05:08:22.184Z,40.7
2019-02-21T05:08:54.165Z,41.08
2019-02-21T05:09:27.845Z,41.08
2019-02-21T05:09:59.912Z,40.7
2019-02-21T05:10:32.010Z,40.7
2019-02-21T05:11:04.011Z,40.8
2019-02-21T05:11:36.321Z,40.7
2019-02-21T05:12:08.304Z,40.7
2019-02-21T05:12:40.286Z,40.8
2019-02-21T05:13:12.288Z,40.7
2019-02-21T05:13:44.263Z,40.89
2019-02-21T05:14:16.268Z,40.7
2019-02-21T05:14:48.267Z,40.89
2019-02-21T05:15:20.265Z,41.08
2019-02-21T05:15:52.256Z,40.89
2019-02-21T05:16:24.247Z,40.89
2019-02-21T05:16:56.252Z,40.7
2019-02-21T05:17:28.245Z,40.61
2019-02-21T05:18:00.239Z,41.18
2019-02-21T05:18:32.248Z,40.7
2019-02-21T05:19:04.291Z,41.08
2019-02-21T05:19:36.538Z,40.8
2019-02-21T05:20:08.537Z,41.28
2019-02-21T05:20:40.523Z,40.7
2019-02-21T05:21:12.514Z,40.7
2019-02-21T05:21:44.622Z,40.8
2019-02-21T05:22:16.799Z,40.7
2019-02-21T05:22:48.798Z,41.18
2019-02-21T05:23:20.831Z,40.7
2019-02-21T05:23:52.824Z,40.61
2019-02-21T05:24:24.898Z,40.8
2019-02-21T05:24:56.915Z,40.7
2019-02-21T05:25:28.949Z,40.8
2019-02-21T05:26:00.941Z,40.7
2019-02-21T05:26:32.937Z,40.8
2019-02-21T05:27:04.918Z,40.99
2019-02-21T05:27:36.916Z,41.18
2019-02-21T05:28:08.884Z,40.8
2019-02-21T05:28:41.764Z,41.18
2019-02-21T05:29:13.838Z,40.61
2019-02-21T05:29:45.836Z,40.89
2019-02-21T05:30:17.829Z,41.18
2019-02-21T05:30:49.869Z,41.28
2019-02-21T05:31:21.838Z,41.28
2019-02-21T05:31:53.889Z,40.89
2019-02-21T05:32:25.888Z,40.61
2019-02-21T05:32:57.883Z,40.8
2019-02-21T05:33:29.859Z,40.7
2019-02-21T05:34:01.935Z,40.89
2019-02-21T05:34:33.966Z,40.8
2019-02-21T05:35:05.953Z,40.89
2019-02-21T05:35:37.932Z,40.89
2019-02-21T05:36:09.948Z,40.99
2019-02-21T05:36:41.944Z,40.89
2019-02-21T05:37:14.053Z,41.38
2019-02-21T05:37:46.095Z,40.89
2019-02-21T05:38:18.097Z,40.8
2019-02-21T05:38:50.106Z,40.99
2019-02-21T05:39:22.092Z,40.99
2019-02-21T05:39:54.103Z,40.89
2019-02-21T05:40:29.067Z,40.8
2019-02-21T05:41:03.853Z,41.08
2019-02-21T05:41:36.321Z,40.7
2019-02-21T05:42:08.869Z,40.7
2019-02-21T05:42:40.914Z,40.51
2019-02-21T05:43:12.927Z,40.7
2019-02-21T05:43:44.911Z,40.7
2019-02-21T05:44:16.901Z,40.8
2019-02-21T05:44:48.923Z,40.7
2019-02-21T05:45:20.906Z,40.8
2019-02-21T05:45:52.916Z,40.8
2019-02-21T05:46:25.028Z,40.61
2019-02-21T05:46:57.054Z,40.89
2019-02-21T05:47:29.048Z,40.8
2019-02-21T05:48:01.813Z,40.7
2019-02-21T05:48:33.805Z,40.8
2019-02-21T05:49:05.803Z,40.89
2019-02-21T05:49:37.779Z,40.89
2019-02-21T05:50:09.767Z,40.61
2019-02-21T05:50:41.799Z,41.18
2019-02-21T05:51:13.821Z,40.61
2019-02-21T05:51:45.827Z,40.7
2019-02-21T05:52:17.802Z,40.8
2019-02-21T05:52:49.793Z,40.99
2019-02-21T05:53:21.794Z,41.18
2019-02-21T05:53:53.782Z,40.7
2019-02-21T05:54:25.774Z,40.7
2019-02-21T05:54:57.778Z,40.8
2019-02-21T05:55:29.778Z,40.61
2019-02-21T05:56:01.765Z,40.61
2019-02-21T05:56:34.371Z,40.61
2019-02-21T05:57:06.342Z,40.8
2019-02-21T05:57:38.315Z,40.89
2019-02-21T05:58:13.103Z,40.8
2019-02-21T05:58:45.082Z,40.61
2019-02-21T05:59:17.148Z,40.61
2019-02-21T05:59:49.148Z,40.61
2019-02-21T06:00:21.255Z,40.7
2019-02-21T06:00:53.249Z,40.8
2019-02-21T06:01:25.299Z,40.61
2019-02-21T06:01:57.298Z,41.28
2019-02-21T06:02:29.305Z,41.18
2019-02-21T06:03:01.321Z,40.8
2019-02-21T06:03:36.328Z,41.08
2019-02-21T06:04:08.319Z,40.8
2019-02-21T06:04:40.327Z,40.7
2019-02-21T06:05:12.329Z,40.7
2019-02-21T06:05:44.322Z,40.7
2019-02-21T06:06:17.751Z,40.99
2019-02-21T06:06:49.787Z,40.61
2019-02-21T06:07:21.764Z,40.99
2019-02-21T06:07:53.815Z,40.7
2019-02-21T06:08:25.864Z,40.8
2019-02-21T06:08:57.865Z,41.18
2019-02-21T06:09:29.842Z,41.18
2019-02-21T06:10:01.837Z,40.8
2019-02-21T06:10:33.821Z,40.99
2019-02-21T06:11:05.825Z,40.99
2019-02-21T06:11:37.829Z,41.18
2019-02-21T06:12:09.827Z,40.8
2019-02-21T06:12:41.827Z,40.99
2019-02-21T06:13:13.792Z,40.8
2019-02-21T06:13:45.771Z,41.08
2019-02-21T06:14:17.761Z,41.18
2019-02-21T06:14:49.776Z,41.18
2019-02-21T06:15:21.762Z,40.99
2019-02-21T06:15:53.830Z,40.8
2019-02-21T06:16:25.807Z,40.7
2019-02-21T06:16:57.826Z,40.99
2019-02-21T06:17:29.838Z,40.99
2019-02-21T06:18:01.815Z,41.08
2019-02-21T06:18:33.830Z,40.8
2019-02-21T06:19:05.814Z,40.99
2019-02-21T06:19:37.811Z,41.18
2019-02-21T06:20:09.805Z,40.99
2019-02-21T06:20:41.780Z,40.8
2019-02-21T06:21:13.839Z,41.18
2019-02-21T06:21:45.814Z,41.08
2019-02-21T06:22:17.801Z,40.8
2019-02-21T06:22:49.829Z,41.28
2019-02-21T06:23:21.800Z,41.08
2019-02-21T06:23:56.550Z,40.8
2019-02-21T06:24:28.528Z,41.08
2019-02-21T06:25:00.737Z,40.99
2019-02-21T06:25:32.866Z,41.18
2019-02-21T06:26:04.895Z,41.08
2019-02-21T06:26:39.309Z,40.89
2019-02-21T06:27:12.794Z,40.89
2019-02-21T06:27:44.815Z,40.99
2019-02-21T06:28:16.801Z,41.18
2019-02-21T06:28:48.776Z,40.8
2019-02-21T06:29:23.086Z,40.99
2019-02-21T06:29:55.109Z,40.99
2019-02-21T06:30:27.089Z,40.89
2019-02-21T06:30:59.085Z,40.89
2019-02-21T06:31:32.045Z,40.89
2019-02-21T06:32:14.699Z,40.99
2019-02-21T06:32:46.802Z,41.08
2019-02-21T06:33:19.110Z,40.99
2019-02-21T06:33:52.664Z,40.99
2019-02-21T06:34:25.290Z,41.18
2019-02-21T06:34:59.429Z,40.89
2019-02-21T06:35:35.158Z,40.99
2019-02-21T06:36:08.207Z,40.8
2019-02-21T06:36:40.368Z,40.89
2019-02-21T06:37:13.269Z,40.89
2019-02-21T06:37:45.494Z,40.89
2019-02-21T06:38:17.689Z,40.89
2019-02-21T06:38:49.785Z,40.89
2019-02-21T06:39:21.864Z,40.99
2019-02-21T06:39:56.606Z,40.99
2019-02-21T06:40:28.580Z,40.99
2019-02-21T06:41:00.713Z,40.89
2019-02-21T06:41:32.725Z,40.99
2019-02-21T06:42:04.720Z,40.89
2019-02-21T06:42:36.693Z,41.08
2019-02-21T06:43:08.685Z,40.89
2019-02-21T06:43:40.702Z,40.89
2019-02-21T06:44:12.705Z,40.8
2019-02-21T06:44:44.731Z,40.89
2019-02-21T06:45:18.693Z,40.99
2019-02-21T06:45:50.710Z,40.89
2019-02-21T06:46:22.723Z,40.89
2019-02-21T06:46:54.726Z,40.8
2019-02-21T06:47:26.730Z,40.89
2019-02-21T06:47:58.711Z,41.38
2019-02-21T06:48:30.721Z,40.89
2019-02-21T06:49:06.358Z,41.08
2019-02-21T06:49:38.402Z,40.99
2019-02-21T06:50:10.442Z,41.08
2019-02-21T06:50:42.422Z,40.89
2019-02-21T06:51:14.412Z,40.89
2019-02-21T06:51:46.407Z,40.99
2019-02-21T06:52:18.381Z,40.89
2019-02-21T06:52:50.379Z,40.89
2019-02-21T06:53:22.338Z,40.99
2019-02-21T06:53:54.396Z,40.89
2019-02-21T06:54:26.403Z,40.89
2019-02-21T06:54:58.391Z,40.89
2019-02-21T06:55:33.550Z,40.89
2019-02-21T06:56:05.525Z,40.89
2019-02-21T06:56:37.488Z,40.89